Time;durP1;ratioP1;P1;durP2;ratioP2;P2;SDS_P1;SDS_P2;PMS_P1;PMS_P2;Temp;Humidity;BMP_temperature;BMP_pressure;BME280_temperature;BME280_humidity;BME280_pressure;Samples;Min_cycle;Max_cycle;Signal;HPM_P1;HPM_P2
2022/11/08 00:03:29;;;;;;;86.45;44.30;;;11.50;99.90;;;;;;5067887;28;20159;-86
2022/11/08 00:14:08;;;;;;;77.97;38.78;;;11.60;99.90;;;;;;5068948;28;20531;-86
2022/11/08 00:16:34;;;;;;;87.67;44.33;;;11.60;99.90;;;;;;5068048;28;20185;-86
2022/11/08 00:19:00;;;;;;;82.93;45.00;;;11.60;99.90;;;;;;5069001;28;20172;-86
2022/11/08 00:21:25;;;;;;;79.55;37.20;;;11.60;99.90;;;;;;5085063;28;20421;-86
2022/11/08 00:23:51;;;;;;;82.07;40.67;;;11.60;99.90;;;;;;5081938;28;20284;-86
2022/11/08 00:26:17;;;;;;;88.50;41.57;;;11.70;99.90;;;;;;5068798;28;20171;-86
2022/11/08 00:28:43;;;;;;;78.37;37.50;;;11.70;99.90;;;;;;5068474;28;20628;-86
2022/11/08 00:31:08;;;;;;;80.13;32.77;;;11.80;99.90;;;;;;5067934;28;20242;-86
2022/11/08 00:33:34;;;;;;;81.37;42.07;;;11.80;99.90;;;;;;5068299;28;20180;-86
2022/11/08 00:36:01;;;;;;;85.27;50.57;;;11.90;99.90;;;;;;5067680;28;20168;-86
2022/11/08 00:38:27;;;;;;;82.20;43.60;;;11.90;99.90;;;;;;5082939;28;20226;-86
2022/11/08 00:40:53;;;;;;;81.35;37.05;;;12.00;99.90;;;;;;5083416;28;20196;-85
2022/11/08 00:43:18;;;;;;;90.07;46.93;;;12.00;99.90;;;;;;5082250;28;20268;-85
2022/11/08 00:45:44;;;;;;;79.97;36.67;;;12.10;99.90;;;;;;5065530;28;20169;-85
2022/11/08 00:48:10;;;;;;;74.70;26.17;;;12.20;99.90;;;;;;5067012;28;20168;-85
2022/11/08 00:50:39;;;;;;;73.47;28.07;;;12.20;99.90;;;;;;5082224;28;20200;-85
2022/11/08 00:53:05;;;;;;;76.53;34.00;;;12.20;99.90;;;;;;5067395;28;20199;-85
2022/11/08 00:55:30;;;;;;;75.77;30.87;;;12.30;99.90;;;;;;5080212;28;20168;-84
2022/11/08 00:57:56;;;;;;;75.70;23.60;;;12.30;99.90;;;;;;5065435;28;20698;-85
2022/11/08 01:00:25;;;;;;;81.47;27.40;;;12.30;99.90;;;;;;5081441;28;20188;-86
2022/11/08 01:03:17;;;;;;;78.07;25.05;;;12.30;99.90;;;;;;5067048;28;20168;-86
2022/11/08 01:05:39;;;;;;;80.07;25.33;;;12.30;99.90;;;;;;5065196;28;20235;-86
2022/11/08 01:08:05;;;;;;;75.33;24.37;;;12.30;99.90;;;;;;5067910;28;20636;-86
2022/11/08 01:10:30;;;;;;;73.10;25.07;;;12.40;99.90;;;;;;5065798;28;20973;-85
2022/11/08 01:12:56;;;;;;;77.13;25.20;;;12.40;99.90;;;;;;5080726;28;20165;-86
2022/11/08 01:15:22;;;;;;;80.10;22.80;;;12.30;99.90;;;;;;5067035;28;20160;-85
2022/11/08 01:17:47;;;;;;;75.13;25.70;;;12.30;99.90;;;;;;5066700;28;20168;-86
2022/11/08 01:20:13;;;;;;;76.30;26.23;;;12.40;99.90;;;;;;5082330;28;20188;-86
2022/11/08 01:22:39;;;;;;;76.10;26.63;;;12.40;99.90;;;;;;5082344;28;20195;-86
2022/11/08 01:25:04;;;;;;;74.90;24.30;;;12.40;99.90;;;;;;5066652;28;20224;-86
2022/11/08 01:27:30;;;;;;;74.53;23.90;;;12.40;99.90;;;;;;5067031;28;20164;-86
2022/11/08 01:29:56;;;;;;;73.77;22.67;;;12.40;99.90;;;;;;5079597;28;20455;-86
2022/11/08 01:32:21;;;;;;;78.03;27.60;;;12.40;99.90;;;;;;5065403;28;20164;-86
2022/11/08 01:34:47;;;;;;;80.20;24.03;;;12.40;99.90;;;;;;5064998;28;20176;-86
2022/11/08 01:37:13;;;;;;;77.23;25.30;;;12.40;99.90;;;;;;5063701;28;20172;-86
2022/11/08 01:39:39;;;;;;;77.78;23.27;;;12.40;99.90;;;;;;5063736;28;20180;-86
2022/11/08 01:42:05;;;;;;;74.10;25.60;;;12.40;99.90;;;;;;5066204;28;20225;-85
2022/11/08 01:44:30;;;;;;;74.37;24.00;;;12.40;99.90;;;;;;5066610;28;20632;-86
2022/11/08 01:46:59;;;;;;;77.50;24.57;;;12.50;99.90;;;;;;5066836;28;20218;-86
2022/11/08 01:49:41;;;;;;;81.85;27.15;;;12.50;99.90;;;;;;5066512;28;20200;-86
2022/11/08 01:52:13;;;;;;;76.78;29.98;;;12.50;99.90;;;;;;5081576;28;20179;-86
2022/11/08 01:54:45;;;;;;;77.63;27.15;;;12.50;99.90;;;;;;5065978;28;20164;-86
2022/11/08 01:57:16;;;;;;;73.43;26.50;;;12.50;99.90;;;;;;5081362;28;20182;-86
2022/11/08 01:59:44;;;;;;;75.30;29.40;;;12.40;99.90;;;;;;5079356;28;20192;-86
2022/11/08 02:02:11;;;;;;;75.47;30.45;;;12.40;99.90;;;;;;5065736;28;20160;-86
2022/11/08 02:04:41;;;;;;;75.45;27.02;;;12.40;99.90;;;;;;5065914;28;20251;-86
2022/11/08 02:07:08;;;;;;;71.90;18.65;;;12.30;99.90;;;;;;5082007;28;20168;-86
2022/11/08 02:09:36;;;;;;;75.70;27.33;;;12.30;99.90;;;;;;5083030;28;20193;-86
2022/11/08 02:12:02;;;;;;;74.68;25.13;;;12.30;99.90;;;;;;5066874;28;20251;-86
2022/11/08 02:14:28;;;;;;;75.65;27.17;;;12.20;99.90;;;;;;5066114;28;20173;-86
2022/11/08 02:16:54;;;;;;;74.00;28.53;;;12.10;99.90;;;;;;5081839;28;20171;-86
2022/11/08 02:19:35;;;;;;;75.93;28.20;;;12.00;99.90;;;;;;5066391;28;20188;-86
2022/11/08 02:22:05;;;;;;;73.25;25.10;;;12.00;99.90;;;;;;5066438;28;20183;-86
2022/11/08 02:24:31;;;;;;;79.55;28.63;;;12.00;99.90;;;;;;5067385;28;20204;-86
2022/11/08 02:26:57;;;;;;;76.97;24.83;;;12.00;99.90;;;;;;5083092;28;20168;-86
2022/11/08 02:29:35;;;;;;;80.07;29.67;;;11.90;99.90;;;;;;5069939;28;20219;-85
2022/11/08 02:32:04;;;;;;;83.53;34.45;;;11.90;99.90;;;;;;5071226;28;20247;-85
2022/11/08 02:34:34;;;;;;;74.53;25.70;;;11.80;99.90;;;;;;5069917;28;20180;-85
2022/11/08 02:37:02;;;;;;;73.10;23.38;;;11.80;99.90;;;;;;5071227;28;20179;-86
2022/11/08 02:39:28;;;;;;;81.78;35.80;;;11.80;99.90;;;;;;5070767;28;20187;-85
2022/11/08 02:41:55;;;;;;;80.95;38.35;;;11.70;99.90;;;;;;5070577;28;20160;-86
2022/11/08 02:44:20;;;;;;;82.80;35.55;;;11.70;99.90;;;;;;5070920;28;20179;-86
2022/11/08 02:46:46;;;;;;;79.30;34.53;;;11.60;99.90;;;;;;5070451;28;20220;-85
2022/11/08 02:49:12;;;;;;;77.60;31.60;;;11.60;99.90;;;;;;5069404;28;20646;-85
2022/11/08 02:51:38;;;;;;;77.93;35.70;;;11.60;99.90;;;;;;5084868;28;20157;-86
2022/11/08 02:54:03;;;;;;;84.97;41.17;;;11.50;99.90;;;;;;5085559;28;20410;-86
2022/11/08 02:56:29;;;;;;;82.27;49.43;;;11.50;99.90;;;;;;5069920;28;20222;-86
2022/11/08 02:58:55;;;;;;;82.47;44.07;;;11.40;99.90;;;;;;5069744;28;20185;-86
2022/11/08 03:01:21;;;;;;;86.90;45.80;;;11.40;99.90;;;;;;5070612;28;20420;-86
2022/11/08 03:03:46;;;;;;;83.33;47.00;;;11.40;99.90;;;;;;5068717;28;20501;-86
2022/11/08 03:06:12;;;;;;;85.20;49.47;;;11.30;99.90;;;;;;5083462;28;20680;-85
2022/11/08 03:08:38;;;;;;;82.90;44.80;;;11.30;99.90;;;;;;5067907;28;20175;-85
2022/11/08 03:11:03;;;;;;;80.03;47.57;;;11.20;99.90;;;;;;5083553;28;20194;-85
2022/11/08 03:13:29;;;;;;;81.57;49.53;;;11.20;99.90;;;;;;5068201;28;20161;-86
2022/11/08 03:15:54;;;;;;;83.70;47.80;;;11.20;99.90;;;;;;5068538;28;20244;-86
2022/11/08 03:18:20;;;;;;;80.93;46.07;;;11.20;99.90;;;;;;5070078;28;20161;-86
2022/11/08 03:20:46;;;;;;;86.23;47.53;;;11.20;99.90;;;;;;5066927;28;20195;-86
2022/11/08 03:23:11;;;;;;;83.27;43.53;;;11.20;99.90;;;;;;5067570;28;20170;-86
2022/11/08 03:25:37;;;;;;;84.10;45.33;;;11.20;99.90;;;;;;5066827;28;20532;-86
2022/11/08 03:28:07;;;;;;;84.60;44.13;;;11.10;99.90;;;;;;5067706;28;20172;-86
2022/11/08 03:30:34;;;;;;;84.07;42.58;;;11.10;99.90;;;;;;5069308;28;20206;-86
2022/11/08 03:33:00;;;;;;;81.53;43.75;;;11.00;99.90;;;;;;5069661;28;20187;-86
2022/11/08 03:35:26;;;;;;;82.10;46.75;;;11.10;99.90;;;;;;5066996;28;20153;-86
2022/11/08 03:37:53;;;;;;;85.23;50.40;;;11.10;99.90;;;;;;5067757;28;20165;-86
2022/11/08 03:40:19;;;;;;;81.60;41.78;;;11.00;99.90;;;;;;5065758;28;20185;-86
2022/11/08 03:42:45;;;;;;;79.53;41.13;;;11.00;99.90;;;;;;5068889;28;20170;-86
2022/11/08 03:45:14;;;;;;;80.22;28.90;;;11.00;99.90;;;;;;5068385;28;20192;-86
2022/11/08 03:47:43;;;;;;;72.03;21.23;;;11.10;99.90;;;;;;5067946;28;20167;-86
2022/11/08 03:50:09;;;;;;;80.00;21.48;;;11.20;99.90;;;;;;5068418;28;20190;-86
2022/11/08 03:52:50;;;;;;;77.63;26.98;;;11.10;99.90;;;;;;5068077;28;20185;-86
2022/11/08 03:55:17;;;;;;;79.22;22.20;;;11.10;99.90;;;;;;5068606;28;20683;-86
2022/11/08 03:57:45;;;;;;;71.55;20.17;;;11.10;99.90;;;;;;5068467;28;20179;-86
2022/11/08 04:00:12;;;;;;;75.25;23.40;;;11.10;99.90;;;;;;5066839;28;20248;-86
2022/11/08 04:02:39;;;;;;;71.13;20.13;;;11.10;99.90;;;;;;5068152;28;20165;-86
2022/11/08 04:05:06;;;;;;;73.97;22.58;;;11.00;99.90;;;;;;5068449;28;20184;-86
2022/11/08 04:07:33;;;;;;;76.05;18.38;;;11.00;99.90;;;;;;5065901;28;20180;-84
2022/11/08 04:09:58;;;;;;;77.47;32.70;;;11.00;99.90;;;;;;5065962;28;20188;-86
2022/11/08 04:15:16;;;;;;;75.93;25.52;;;10.90;99.90;;;;;;5067661;28;20253;-86
2022/11/08 04:23:11;;;;;;;74.03;26.05;;;10.90;99.90;;;;;;5066136;28;20168;-86
2022/11/08 04:25:37;;;;;;;74.07;24.87;;;10.90;99.90;;;;;;5066217;28;20169;-86
2022/11/08 04:28:03;;;;;;;73.97;23.97;;;10.80;99.90;;;;;;5082394;28;20181;-86
2022/11/08 04:30:29;;;;;;;73.47;21.80;;;10.80;99.90;;;;;;5067301;28;20222;-86
2022/11/08 04:32:54;;;;;;;79.63;39.70;;;10.70;99.90;;;;;;5067830;28;20450;-85
2022/11/08 04:35:20;;;;;;;77.87;34.67;;;10.70;99.90;;;;;;5067765;28;20153;-86
2022/11/08 04:37:46;;;;;;;82.73;44.73;;;10.60;99.90;;;;;;5083771;28;20704;-85
2022/11/08 04:40:12;;;;;;;84.60;47.63;;;10.60;99.90;;;;;;5082748;28;20449;-85
2022/11/08 04:42:42;;;;;;;83.90;50.97;;;10.60;99.90;;;;;;5080677;28;20176;-86
2022/11/08 04:45:08;;;;;;;83.70;47.53;;;10.60;99.90;;;;;;5081019;28;20422;-86
2022/11/08 04:47:33;;;;;;;80.43;44.70;;;10.70;99.90;;;;;;5065325;28;20160;-86
2022/11/08 04:49:59;;;;;;;84.90;46.00;;;10.70;99.90;;;;;;5065305;28;20447;-86
2022/11/08 04:52:24;;;;;;;86.00;48.50;;;10.60;99.90;;;;;;5066413;28;20169;-86
2022/11/08 04:54:50;;;;;;;84.40;41.33;;;10.60;99.90;;;;;;5079982;28;20175;-86
2022/11/08 04:57:16;;;;;;;82.53;46.23;;;10.60;99.90;;;;;;5080751;28;20176;-86
2022/11/08 04:59:41;;;;;;;83.00;42.87;;;10.60;99.90;;;;;;5064888;28;20192;-85
2022/11/08 05:02:07;;;;;;;79.97;39.63;;;10.60;99.90;;;;;;5081442;28;20557;-86
2022/11/08 05:04:33;;;;;;;83.00;39.43;;;10.70;99.90;;;;;;5066570;28;20167;-86
2022/11/08 05:06:58;;;;;;;83.80;46.60;;;10.70;99.90;;;;;;5067099;28;20161;-86
2022/11/08 05:09:24;;;;;;;82.27;47.13;;;10.60;99.90;;;;;;5081453;28;20271;-86
2022/11/08 05:11:50;;;;;;;84.93;46.30;;;10.60;99.90;;;;;;5066010;28;20165;-86
2022/11/08 05:14:15;;;;;;;82.83;47.20;;;10.60;99.90;;;;;;5066200;28;20156;-86
2022/11/08 05:16:41;;;;;;;80.97;43.70;;;10.60;99.90;;;;;;5066081;28;20202;-86
2022/11/08 05:19:06;;;;;;;81.67;41.10;;;10.60;99.90;;;;;;5064365;28;20188;-86
2022/11/08 05:24:17;;;;;;;80.18;39.08;;;10.50;99.90;;;;;;5065088;28;20164;-85
2022/11/08 05:26:45;;;;;;;76.43;30.38;;;10.50;99.90;;;;;;5064272;28;20172;-86
2022/11/08 05:29:12;;;;;;;77.15;22.92;;;10.60;99.90;;;;;;5064865;28;20185;-86
2022/11/08 05:31:39;;;;;;;75.93;21.58;;;10.60;99.90;;;;;;5064844;28;20179;-86
2022/11/08 05:34:06;;;;;;;75.97;19.35;;;10.60;99.90;;;;;;5082244;23;20234;-83
2022/11/08 05:36:33;;;;;;;81.53;20.70;;;10.50;99.90;;;;;;5077728;28;20237;-83
2022/11/08 05:38:59;;;;;;;76.57;19.30;;;10.50;99.90;;;;;;5072337;28;20192;-83
2022/11/08 05:41:25;;;;;;;79.07;29.50;;;10.40;99.90;;;;;;5057320;28;20191;-83
2022/11/08 05:43:52;;;;;;;82.20;38.55;;;10.40;99.90;;;;;;5057281;28;20732;-83
2022/11/08 05:46:19;;;;;;;81.35;39.70;;;10.40;99.90;;;;;;5057677;28;20229;-83
2022/11/08 05:48:46;;;;;;;83.55;41.85;;;10.30;99.90;;;;;;5057935;28;20169;-83
2022/11/08 05:51:16;;;;;;;79.05;39.72;;;10.40;99.90;;;;;;5058022;28;20196;-83
2022/11/08 05:53:42;;;;;;;77.95;31.85;;;10.40;99.90;;;;;;5057732;28;20160;-83
2022/11/08 05:56:08;;;;;;;77.60;34.77;;;10.40;99.90;;;;;;5057625;28;20502;-83
2022/11/08 05:58:35;;;;;;;81.80;38.97;;;10.40;99.90;;;;;;5057675;28;20520;-83
2022/11/08 06:01:12;;;;;;;84.53;37.58;;;10.40;99.90;;;;;;5057248;28;20509;-83
2022/11/08 06:03:38;;;;;;;82.25;35.92;;;10.40;99.90;;;;;;5072312;28;20635;-83
2022/11/08 06:06:09;;;;;;;86.30;38.10;;;10.40;99.90;;;;;;5073208;28;20548;-83
2022/11/08 06:08:36;;;;;;;79.75;36.40;;;10.40;99.90;;;;;;5057575;28;20601;-83
2022/11/08 06:11:08;;;;;;;80.43;36.40;;;10.50;99.90;;;;;;5057268;28;20200;-83
2022/11/08 06:13:34;;;;;;;80.00;37.40;;;10.50;99.90;;;;;;5056952;28;20559;-83
2022/11/08 06:16:05;;;;;;;81.95;32.45;;;10.50;99.90;;;;;;5057220;28;20165;-83
2022/11/08 06:18:31;;;;;;;77.68;30.15;;;10.50;99.90;;;;;;5056983;28;20148;-83
2022/11/08 06:21:01;;;;;;;77.82;36.97;;;10.40;99.90;;;;;;5057520;28;20174;-83
2022/11/08 06:23:27;;;;;;;81.47;35.45;;;10.50;99.90;;;;;;5057310;28;20165;-83
2022/11/08 06:25:54;;;;;;;81.27;36.57;;;10.40;99.90;;;;;;5057180;28;20164;-83
2022/11/08 06:28:20;;;;;;;81.95;34.65;;;10.40;99.90;;;;;;5056519;28;20403;-83
2022/11/08 06:30:46;;;;;;;83.18;32.75;;;10.40;99.90;;;;;;5056998;28;20192;-82
2022/11/08 06:33:12;;;;;;;87.93;38.55;;;10.40;99.90;;;;;;5056665;28;20658;-82
2022/11/08 06:35:38;;;;;;;79.05;37.97;;;10.40;99.90;;;;;;5072087;28;20165;-83
2022/11/08 06:38:03;;;;;;;77.90;38.03;;;10.40;99.90;;;;;;5071959;28;20190;-83
2022/11/08 06:40:31;;;;;;;81.37;40.67;;;10.40;99.90;;;;;;5057577;28;20193;-83
2022/11/08 06:42:57;;;;;;;82.40;35.00;;;10.40;99.90;;;;;;5057926;28;20161;-83
2022/11/08 06:45:24;;;;;;;77.47;36.00;;;10.40;99.90;;;;;;5057401;28;20595;-83
2022/11/08 06:47:59;;;;;;;81.18;36.17;;;10.40;99.90;;;;;;5057376;28;20160;-83
2022/11/08 06:50:25;;;;;;;80.18;36.60;;;10.50;99.90;;;;;;5057515;28;20192;-83
2022/11/08 06:53:02;;;;;;;79.53;34.72;;;10.50;99.90;;;;;;5072757;28;20164;-83
2022/11/08 06:55:28;;;;;;;83.03;42.13;;;10.60;99.90;;;;;;5057449;28;20223;-83
2022/11/08 06:57:54;;;;;;;79.45;38.15;;;10.50;99.90;;;;;;5057231;28;20182;-83
2022/11/08 07:00:20;;;;;;;79.20;39.10;;;10.50;99.90;;;;;;5056519;28;20189;-83
2022/11/08 07:03:22;;;;;;;80.85;36.40;;;10.50;99.90;;;;;;5055760;28;20456;-83
2022/11/08 07:05:47;;;;;;;81.00;37.97;;;10.50;99.90;;;;;;5057259;28;20152;-83
2022/11/08 07:08:13;;;;;;;77.77;37.03;;;10.50;99.90;;;;;;5056634;28;20172;-83
2022/11/08 07:10:39;;;;;;;78.20;33.80;;;10.50;99.90;;;;;;5056097;28;20269;-83
2022/11/08 07:13:13;;;;;;;78.97;36.60;;;10.50;99.90;;;;;;5056244;28;20395;-83
2022/11/08 07:15:39;;;;;;;77.95;38.33;;;10.50;99.90;;;;;;5059834;28;20395;-83
2022/11/08 07:18:08;;;;;;;84.50;39.60;;;10.60;99.90;;;;;;5060048;28;20621;-83
2022/11/08 07:20:34;;;;;;;77.68;34.05;;;10.60;99.90;;;;;;5061232;28;20177;-83
2022/11/08 07:23:00;;;;;;;79.72;31.95;;;10.60;99.90;;;;;;5060633;28;20171;-83
2022/11/08 07:25:27;;;;;;;76.47;29.77;;;10.60;99.90;;;;;;5060021;28;20567;-83
2022/11/08 07:28:01;;;;;;;72.72;25.77;;;10.70;99.90;;;;;;5060409;28;20395;-83
2022/11/08 07:30:27;;;;;;;79.03;29.92;;;10.70;99.90;;;;;;5061112;28;20223;-83
2022/11/08 07:32:54;;;;;;;73.65;28.20;;;10.70;99.90;;;;;;5061663;28;20164;-83
2022/11/08 07:35:20;;;;;;;75.65;27.90;;;10.70;99.90;;;;;;5061547;28;20249;-83
2022/11/08 07:37:46;;;;;;;73.63;20.70;;;10.70;99.90;;;;;;5061671;28;20568;-83
2022/11/08 07:40:12;;;;;;;70.80;18.30;;;10.80;99.90;;;;;;5076730;28;20192;-83
2022/11/08 07:42:39;;;;;;;69.20;16.42;;;10.80;99.90;;;;;;5061551;28;20442;-83
2022/11/08 07:45:07;;;;;;;74.88;18.17;;;10.80;99.90;;;;;;5061273;28;20168;-83
2022/11/08 07:47:32;;;;;;;71.75;20.40;;;10.80;99.90;;;;;;5061293;28;20231;-83
2022/11/08 07:49:58;;;;;;;71.20;18.97;;;10.80;99.90;;;;;;5061598;28;20196;-83
2022/11/08 07:52:24;;;;;;;72.33;19.60;;;10.80;99.90;;;;;;5061217;28;20579;-83
2022/11/08 07:54:50;;;;;;;69.47;15.93;;;10.90;99.90;;;;;;5076472;28;20173;-83
2022/11/08 07:57:16;;;;;;;71.30;19.23;;;10.90;99.90;;;;;;5061891;28;20402;-83
2022/11/08 07:59:41;;;;;;;72.30;17.47;;;11.00;99.90;;;;;;5075893;28;20607;-83
2022/11/08 08:02:11;;;;;;;71.70;17.33;;;10.90;99.90;;;;;;5076240;28;20540;-83
2022/11/08 08:04:37;;;;;;;75.97;19.50;;;11.00;99.90;;;;;;5076705;28;20302;-83
2022/11/08 08:07:03;;;;;;;71.00;18.20;;;11.00;99.90;;;;;;5061294;28;20161;-83
2022/11/08 08:09:29;;;;;;;71.47;19.10;;;11.00;99.90;;;;;;5075938;28;20192;-84
2022/11/08 08:11:55;;;;;;;73.00;19.73;;;11.20;99.90;;;;;;5076330;28;20165;-83
2022/11/08 08:14:21;;;;;;;74.30;23.70;;;11.20;99.90;;;;;;5060260;28;20214;-83
2022/11/08 08:16:46;;;;;;;73.70;25.07;;;11.40;99.90;;;;;;5076707;28;20250;-83
2022/11/08 08:19:12;;;;;;;71.33;18.93;;;11.50;99.90;;;;;;5061241;28;20186;-83
2022/11/08 08:21:38;;;;;;;73.13;23.55;;;11.50;99.90;;;;;;5076322;28;20179;-83
2022/11/08 08:24:04;;;;;;;72.67;18.03;;;11.60;99.90;;;;;;5060544;28;20161;-83
2022/11/08 08:26:30;;;;;;;74.00;19.45;;;11.70;99.90;;;;;;5075201;28;20171;-83
2022/11/08 08:28:56;;;;;;;75.23;20.00;;;11.70;99.90;;;;;;5075521;28;20275;-83
2022/11/08 08:31:24;;;;;;;71.87;13.60;;;11.80;99.90;;;;;;5059779;28;20496;-83
2022/11/08 08:33:50;;;;;;;68.97;14.68;;;11.90;99.90;;;;;;5059709;28;20191;-83
2022/11/08 08:36:16;;;;;;;73.27;12.23;;;11.90;99.90;;;;;;5060164;28;20165;-83
2022/11/08 08:38:41;;;;;;;70.37;11.47;;;12.00;99.90;;;;;;5059948;28;20184;-83
2022/11/08 08:41:07;;;;;;;76.30;16.13;;;12.10;99.90;;;;;;5060217;28;20175;-83
2022/11/08 08:43:33;;;;;;;71.73;11.50;;;12.10;99.90;;;;;;5059576;28;20169;-83
2022/11/08 08:46:03;;;;;;;70.03;13.77;;;12.20;99.90;;;;;;5075010;28;20175;-84
2022/11/08 08:48:29;;;;;;;70.30;15.63;;;12.20;99.90;;;;;;5075404;28;20153;-83
2022/11/08 08:50:55;;;;;;;68.17;10.67;;;12.30;99.90;;;;;;5059300;28;20207;-83
2022/11/08 08:53:20;;;;;;;71.30;10.90;;;12.30;99.90;;;;;;5059758;28;20169;-83
2022/11/08 08:55:52;;;;;;;67.53;9.50;;;12.40;99.90;;;;;;5059423;28;20435;-83
2022/11/08 08:58:19;;;;;;;68.65;10.85;;;12.40;99.90;;;;;;5059185;28;20144;-83
2022/11/08 09:00:45;;;;;;;75.38;12.90;;;12.40;99.90;;;;;;5075262;28;20192;-83
2022/11/08 09:03:11;;;;;;;69.00;9.75;;;12.40;99.90;;;;;;5060194;28;20220;-83
2022/11/08 09:05:42;;;;;;;71.70;10.85;;;12.50;99.90;;;;;;5058956;28;20168;-83
2022/11/08 09:08:09;;;;;;;68.15;9.45;;;12.50;99.90;;;;;;5075319;28;20160;-83
2022/11/08 09:10:35;;;;;;;69.25;8.05;;;12.50;99.90;;;;;;5059017;28;20192;-83
2022/11/08 09:13:01;;;;;;;66.20;8.60;;;12.50;99.90;;;;;;5059079;28;20165;-83
2022/11/08 09:15:28;;;;;;;66.43;8.40;;;12.60;99.90;;;;;;5058949;28;20399;-83
2022/11/08 09:17:54;;;;;;;69.20;8.48;;;12.60;99.90;;;;;;5058715;28;20161;-83
2022/11/08 09:20:21;;;;;;;66.57;8.10;;;12.70;99.90;;;;;;5059011;28;20223;-83
2022/11/08 09:22:47;;;;;;;66.20;7.47;;;12.60;99.90;;;;;;5058126;28;20403;-82
2022/11/08 09:25:12;;;;;;;67.47;9.50;;;12.70;99.90;;;;;;5058121;28;20199;-83
2022/11/08 09:27:38;;;;;;;67.73;8.50;;;12.70;99.90;;;;;;5058847;28;20407;-83
2022/11/08 09:30:04;;;;;;;70.77;9.27;;;12.80;99.90;;;;;;5058436;28;20690;-83
2022/11/08 09:32:30;;;;;;;66.82;8.82;;;12.70;99.90;;;;;;5073489;28;20168;-83
2022/11/08 09:34:56;;;;;;;67.10;9.77;;;12.70;99.90;;;;;;5057560;28;20191;-83
2022/11/08 09:37:23;;;;;;;71.97;10.57;;;12.70;99.90;;;;;;5072520;28;20192;-83
2022/11/08 09:39:49;;;;;;;66.90;9.27;;;12.70;99.90;;;;;;5058437;28;20188;-83
2022/11/08 09:42:43;;;;;;;68.87;9.30;;;12.70;99.90;;;;;;5073504;28;20572;-83
2022/11/08 09:45:17;;;;;;;66.57;7.57;;;12.70;99.90;;;;;;5058136;28;20396;-83
2022/11/08 09:47:46;;;;;;;68.57;8.50;;;12.70;99.90;;;;;;5073393;28;20254;-83
2022/11/08 09:50:24;;;;;;;66.60;8.27;;;12.70;99.90;;;;;;5057609;28;20284;-83
2022/11/08 09:53:02;;;;;;;66.45;7.97;;;12.70;99.90;;;;;;5057542;28;20203;-83
2022/11/08 09:55:35;;;;;;;68.15;9.82;;;12.70;99.90;;;;;;5073319;28;20152;-83
2022/11/08 09:58:04;;;;;;;71.93;10.23;;;12.80;99.90;;;;;;5058221;28;20145;-83
2022/11/08 10:00:39;;;;;;;71.70;13.05;;;12.90;99.90;;;;;;5057478;28;20238;-83
2022/11/08 10:03:04;;;;;;;69.68;12.32;;;13.00;99.90;;;;;;5057894;28;20612;-83
2022/11/08 10:05:41;;;;;;;68.57;10.40;;;13.00;99.90;;;;;;5057993;28;20180;-83
2022/11/08 10:08:23;;;;;;;69.15;9.57;;;13.00;99.90;;;;;;5057265;28;20524;-82
2022/11/08 10:11:06;;;;;;;68.30;7.88;;;13.10;99.90;;;;;;5057215;28;20241;-83
2022/11/08 10:13:39;;;;;;;67.45;9.15;;;13.20;99.90;;;;;;5057242;28;20734;-83
2022/11/08 10:16:28;;;;;;;70.13;8.00;;;13.10;99.90;;;;;;5057809;28;20145;-82
2022/11/08 10:18:57;;;;;;;70.18;8.88;;;13.20;99.90;;;;;;5046455;28;20204;-83
2022/11/08 10:21:52;;;;;;;69.53;8.15;;;13.20;99.90;;;;;;5057061;28;20191;-83
2022/11/08 10:24:44;;;;;;;70.88;7.25;;;13.20;99.90;;;;;;5046576;28;20184;-83
2022/11/08 10:27:19;;;;;;;65.90;7.03;;;13.20;99.90;;;;;;5072889;28;20203;-83
2022/11/08 10:29:45;;;;;;;67.47;7.00;;;13.20;99.10;;;;;;5057135;28;20195;-83
2022/11/08 10:32:21;;;;;;;68.20;6.90;;;13.20;97.10;;;;;;5057362;28;20168;-83
2022/11/08 10:35:10;;;;;;;69.20;6.22;;;13.20;94.00;;;;;;5072513;28;20229;-83
2022/11/08 10:37:36;;;;;;;67.53;6.18;;;13.30;94.60;;;;;;5019771;28;20183;-83
2022/11/08 10:40:32;;;;;;;66.77;5.80;;;13.30;93.50;;;;;;5072556;28;20188;-83
2022/11/08 10:43:40;;;;;;;69.20;5.50;;;13.40;93.10;;;;;;5056823;28;21014;-83
2022/11/08 10:46:33;;;;;;;68.05;5.13;;;13.60;92.50;;;;;;5046748;28;20943;-82
2022/11/08 10:49:21;;;;;;;68.53;5.60;;;13.60;91.20;;;;;;5056855;28;20687;-82
2022/11/08 10:51:59;;;;;;;66.95;5.50;;;13.70;90.70;;;;;;5061106;28;20526;-83
2022/11/08 10:54:46;;;;;;;68.25;6.38;;;13.80;83.20;;;;;;5075970;28;20171;-82
2022/11/08 10:57:37;;;;;;;68.60;6.07;;;13.90;83.60;;;;;;5060505;28;20171;-82
2022/11/08 11:00:23;;;;;;;69.22;5.78;;;14.00;80.70;;;;;;5060473;28;20458;-85
2022/11/08 11:02:55;;;;;;;68.17;6.27;;;14.00;81.30;;;;;;5061185;28;20247;-85
2022/11/08 11:05:36;;;;;;;67.47;5.63;;;13.90;75.50;;;;;;5060446;28;20403;-82
2022/11/08 11:08:17;;;;;;;67.97;5.83;;;13.90;81.70;;;;;;5060928;28;20402;-82
2022/11/08 11:10:49;;;;;;;72.40;5.77;;;14.00;79.80;;;;;;5075942;28;20853;-82
2022/11/08 11:13:26;;;;;;;68.40;5.63;;;14.00;80.30;;;;;;5074829;28;20437;-82
2022/11/08 11:15:57;;;;;;;66.55;5.15;;;14.00;81.90;;;;;;5075909;28;20438;-83
2022/11/08 11:18:30;;;;;;;66.10;5.13;;;14.10;79.90;;;;;;5059923;28;20575;-82
2022/11/08 11:21:22;;;;;;;66.13;6.53;;;14.10;81.50;;;;;;5059315;28;20418;-83
2022/11/08 11:23:53;;;;;;;71.83;6.57;;;14.20;83.80;;;;;;5075886;28;20917;-82
2022/11/08 11:26:19;;;;;;;70.77;7.30;;;14.40;79.40;;;;;;5060414;28;20399;-82
2022/11/08 11:29:16;;;;;;;73.10;7.73;;;14.50;77.20;;;;;;5075690;28;20403;-82
2022/11/08 11:31:44;;;;;;;68.00;7.07;;;14.70;65.20;;;;;;5058990;28;20676;-83
2022/11/08 11:34:15;;;;;;;73.90;7.33;;;14.80;67.10;;;;;;5136410;22;20477;-88
2022/11/08 11:36:45;;;;;;;70.20;6.00;;;14.90;61.40;;;;;;5091876;28;20394;-88
2022/11/08 11:39:19;;;;;;;69.20;7.90;;;14.90;58.80;;;;;;5086849;28;20433;-88
2022/11/08 11:41:57;;;;;;;68.47;7.20;;;15.00;59.10;;;;;;5088109;28;20398;-87
2022/11/08 11:44:40;;;;;;;67.60;6.57;;;15.00;58.00;;;;;;5087345;28;20489;-88
2022/11/08 11:47:26;;;;;;;67.40;5.40;;;15.10;56.10;;;;;;5086968;28;20476;-88
2022/11/08 11:49:54;;;;;;;66.20;4.20;;;15.30;48.70;;;;;;5071765;28;20520;-88
2022/11/08 11:52:23;;;;;;;65.97;4.30;;;15.30;49.80;;;;;;5092742;28;20403;-86
2022/11/08 11:54:49;;;;;;;66.80;4.57;;;15.30;44.70;;;;;;5095172;28;20441;-87
2022/11/08 11:57:31;;;;;;;66.63;4.60;;;15.30;44.70;;;;;;5094768;28;20427;-87
2022/11/08 12:00:11;;;;;;;66.90;3.97;;;15.30;47.70;;;;;;5077816;28;20478;-88
2022/11/08 12:02:50;;;;;;;68.87;4.70;;;15.40;47.30;;;;;;5093083;28;20426;-87
2022/11/08 12:05:47;;;;;;;70.37;4.17;;;15.30;48.10;;;;;;5077758;28;20854;-87
2022/11/08 12:08:22;;;;;;;69.50;4.40;;;15.40;46.40;;;;;;5092572;28;20514;-87
2022/11/08 12:11:13;;;;;;;69.57;4.23;;;15.30;52.70;;;;;;5093067;28;20450;-87
2022/11/08 12:13:54;;;;;;;65.87;3.10;;;15.30;48.00;;;;;;5077008;28;20449;-88
2022/11/08 12:16:26;;;;;;;70.87;4.43;;;15.30;44.90;;;;;;5075440;28;20425;-86
2022/11/08 12:19:20;;;;;;;70.63;4.30;;;15.20;48.20;;;;;;5091017;28;20431;-86
2022/11/08 12:22:03;;;;;;;68.27;4.40;;;15.20;46.80;;;;;;5075896;28;20419;-89
2022/11/08 12:24:42;;;;;;;67.80;3.57;;;15.20;48.80;;;;;;5075735;28;20387;-87
2022/11/08 12:27:14;;;;;;;70.80;4.70;;;15.20;50.50;;;;;;5075933;28;20403;-88
2022/11/08 12:30:03;;;;;;;68.20;4.57;;;15.10;53.90;;;;;;5091422;28;20454;-89
2022/11/08 12:32:56;;;;;;;68.10;5.00;;;15.10;55.00;;;;;;5092919;28;20404;-88
2022/11/08 12:36:01;;;;;;;67.77;4.13;;;15.20;57.30;;;;;;5091259;28;20422;-88
2022/11/08 12:38:46;;;;;;;68.90;4.97;;;15.20;50.90;;;;;;5060674;28;20510;-88
2022/11/08 12:41:20;;;;;;;65.87;4.40;;;15.20;54.70;;;;;;5090621;28;20399;-88
2022/11/08 12:44:01;;;;;;;67.27;4.70;;;15.20;60.00;;;;;;5074816;28;20414;-88
2022/11/08 12:46:32;;;;;;;69.70;4.63;;;15.30;61.80;;;;;;5074182;28;20410;-88
2022/11/08 12:49:24;;;;;;;66.80;4.37;;;15.40;61.40;;;;;;5089486;28;20438;-88
2022/11/08 12:52:05;;;;;;;69.13;4.33;;;15.40;70.30;;;;;;5088265;28;20534;-88
2022/11/08 12:54:36;;;;;;;67.17;4.73;;;15.40;66.60;;;;;;5073072;28;20412;-88
2022/11/08 12:57:09;;;;;;;66.90;4.63;;;15.40;67.70;;;;;;5072942;28;20407;-88
2022/11/08 12:59:59;;;;;;;66.00;4.43;;;15.30;71.50;;;;;;5072999;28;20425;-88
2022/11/08 13:02:32;;;;;;;71.80;4.30;;;15.30;76.80;;;;;;5072322;28;20459;-88
2022/11/08 13:05:18;;;;;;;66.00;4.30;;;15.40;72.50;;;;;;5072563;28;20462;-88
2022/11/08 13:07:59;;;;;;;65.57;4.20;;;15.40;64.60;;;;;;5089126;28;20404;-88